createdAt,value
2022-10-23T00:01:57.187Z,76.16
2022-10-23T00:04:26.748Z,75.98
2022-10-23T00:06:56.095Z,76.25
2022-10-23T00:09:26.965Z,76.06
2022-10-23T00:11:56.261Z,77.31
2022-10-23T00:14:26.462Z,77.73
2022-10-23T00:16:55.650Z,78.36
2022-10-23T00:19:25.066Z,77.69
2022-10-23T00:21:54.275Z,78.59
2022-10-23T00:24:23.513Z,80.03
2022-10-23T00:26:54.141Z,78.70
2022-10-23T00:29:23.333Z,79.61
2022-10-23T00:31:52.446Z,79.91
2022-10-23T00:36:50.928Z,79.77
2022-10-23T00:39:20.074Z,81.20
2022-10-23T00:41:49.218Z,81.46
2022-10-23T00:45:17.164Z,82.40
2022-10-23T00:47:47.333Z,82.00
2022-10-23T00:50:17.205Z,82.53
2022-10-23T00:52:50.656Z,82.23
2022-10-23T00:55:24.224Z,83.29
2022-10-23T00:57:54.461Z,83.37
2022-10-23T01:00:28.609Z,84.08
2022-10-23T01:02:58.803Z,84.84
2022-10-23T01:05:38.356Z,84.87
2022-10-23T01:08:18.625Z,85.57
2022-10-23T01:10:55.478Z,84.97
2022-10-23T01:13:41.405Z,87.04
2022-10-23T01:16:18.972Z,86.57
2022-10-23T01:18:58.417Z,86.48
2022-10-23T01:21:43.396Z,85.99
2022-10-23T01:24:28.720Z,86.30
2022-10-23T01:27:21.061Z,86.96
2022-10-23T01:30:04.040Z,86.46
2022-10-23T01:32:45.720Z,85.84
2022-10-23T01:35:19.930Z,86.08
2022-10-23T01:38:02.662Z,87.23
2022-10-23T01:40:37.268Z,86.24
2022-10-23T01:43:14.286Z,86.78
2022-10-23T01:45:47.170Z,87.62
2022-10-23T01:48:27.720Z,87.76
2022-10-23T01:51:01.688Z,87.96
2022-10-23T01:53:35.399Z,88.24
2022-10-23T01:56:08.569Z,87.79
2022-10-23T01:58:41.073Z,86.96
2022-10-23T02:01:13.265Z,88.07
2022-10-23T02:03:51.935Z,88.23
2022-10-23T02:06:21.425Z,88.38
2022-10-23T02:08:51.274Z,88.81
2022-10-23T02:11:22.717Z,87.74
2022-10-23T02:14:00.885Z,88.49
2022-10-23T02:16:40.397Z,88.35
2022-10-23T02:19:21.952Z,88.65
2022-10-23T02:21:56.802Z,89.87
2022-10-23T02:24:32.968Z,90.02
2022-10-23T02:27:09.196Z,89.34
2022-10-23T02:29:45.494Z,89.90
2022-10-23T02:32:17.726Z,89.35
2022-10-23T02:34:49.558Z,89.25
2022-10-23T02:37:19.000Z,90.02
2022-10-23T02:39:49.317Z,89.63
2022-10-23T02:42:25.167Z,90.52
2022-10-23T02:45:08.408Z,89.89
2022-10-23T02:47:52.921Z,89.58
2022-10-23T02:50:30.523Z,89.76
2022-10-23T02:53:07.608Z,91.28
2022-10-23T02:55:54.932Z,90.33
2022-10-23T02:58:32.618Z,89.99
2022-10-23T03:01:11.892Z,90.45
2022-10-23T03:03:46.934Z,90.14
2022-10-23T03:06:17.613Z,90.02
2022-10-23T03:08:55.037Z,89.77
2022-10-23T03:11:27.046Z,89.58
2022-10-23T03:13:57.896Z,89.62
2022-10-23T03:16:29.511Z,89.95
2022-10-23T03:18:58.744Z,89.85
2022-10-23T03:21:28.059Z,89.78
2022-10-23T03:23:57.866Z,89.68
2022-10-23T03:26:36.619Z,89.86
2022-10-23T03:29:07.229Z,90.74
2022-10-23T03:31:44.289Z,90.40
2022-10-23T03:34:15.083Z,90.37
2022-10-23T03:36:44.973Z,90.38
2022-10-23T03:39:14.258Z,90.53
2022-10-23T03:41:44.771Z,90.61
2022-10-23T03:44:13.965Z,90.54
2022-10-23T03:46:47.753Z,91.82
2022-10-23T03:49:17.001Z,92.05
2022-10-23T03:51:52.052Z,90.86
2022-10-23T03:54:25.702Z,90.67
2022-10-23T03:56:57.497Z,92.25
2022-10-23T03:59:29.189Z,91.90
2022-10-23T04:01:59.936Z,92.26
2022-10-23T04:04:29.497Z,92.12
2022-10-23T04:06:58.853Z,92.57
2022-10-23T04:09:28.834Z,92.30
2022-10-23T04:11:58.737Z,92.36
2022-10-23T04:14:30.609Z,91.63
2022-10-23T04:17:01.203Z,92.75
2022-10-23T04:19:30.879Z,92.50
2022-10-23T04:22:00.088Z,93.11
2022-10-23T04:24:29.457Z,93.03
2022-10-23T04:26:58.819Z,93.38
2022-10-23T04:29:32.498Z,93.72
2022-10-23T04:32:03.300Z,93.78
2022-10-23T04:34:32.465Z,94.30
2022-10-23T04:37:01.624Z,94.39
2022-10-23T04:39:30.898Z,94.52
2022-10-23T04:42:00.079Z,95.26
2022-10-23T04:44:29.293Z,94.23
2022-10-23T04:46:58.484Z,95.27
2022-10-23T04:49:29.149Z,95.80
2022-10-23T04:52:16.934Z,94.79
2022-10-23T04:55:08.893Z,95.09
2022-10-23T04:57:45.884Z,94.97
2022-10-23T05:00:17.290Z,95.38
2022-10-23T05:02:51.899Z,95.88
2022-10-23T05:05:23.866Z,95.33
2022-10-23T05:08:04.848Z,95.07
2022-10-23T05:10:52.566Z,94.72
2022-10-23T05:13:22.401Z,95.07
2022-10-23T05:15:53.556Z,94.75
2022-10-23T05:18:28.289Z,93.52
2022-10-23T05:21:05.396Z,93.94
2022-10-23T05:23:37.078Z,94.66
2022-10-23T05:26:07.015Z,94.07
2022-10-23T05:28:37.925Z,94.70
2022-10-23T05:31:08.448Z,94.92
2022-10-23T05:33:41.370Z,94.53
2022-10-23T05:36:15.154Z,94.82
2022-10-23T05:38:47.461Z,93.87
2022-10-23T05:41:19.452Z,94.51
2022-10-23T05:43:49.816Z,94.53
2022-10-23T05:46:45.568Z,94.75
2022-10-23T05:49:26.445Z,94.60
2022-10-23T05:52:23.212Z,95.35
2022-10-23T05:55:18.679Z,94.38
2022-10-23T05:58:06.941Z,95.43
2022-10-23T06:00:59.421Z,94.69
2022-10-23T06:03:58.044Z,95.05
2022-10-23T06:06:37.532Z,95.40
2022-10-23T06:09:08.272Z,95.16
2022-10-23T06:11:41.770Z,94.54
2022-10-23T06:14:15.918Z,94.76
2022-10-23T06:16:45.746Z,94.86
2022-10-23T06:19:15.253Z,95.43
2022-10-23T06:21:45.858Z,95.11
2022-10-23T06:24:18.568Z,94.90
2022-10-23T06:26:57.038Z,94.79
2022-10-23T06:29:41.687Z,94.35
2022-10-23T06:32:11.014Z,95.14
2022-10-23T06:34:41.514Z,94.34
2022-10-23T06:37:11.484Z,94.79
2022-10-23T06:39:50.112Z,95.06
2022-10-23T06:42:35.214Z,95.58
2022-10-23T06:45:27.470Z,95.01
2022-10-23T06:48:22.889Z,95.22
2022-10-23T06:51:08.012Z,94.69
2022-10-23T06:53:43.594Z,95.52
2022-10-23T06:56:36.664Z,95.29
2022-10-23T06:59:09.243Z,94.83
2022-10-23T07:01:40.301Z,95.14
2022-10-23T07:04:10.646Z,95.33
2022-10-23T07:06:40.210Z,95.03
2022-10-23T07:09:10.297Z,94.87
2022-10-23T07:12:00.859Z,95.61
2022-10-23T07:14:38.293Z,94.75
2022-10-23T07:17:08.464Z,95.90
2022-10-23T07:19:37.610Z,96.06
2022-10-23T07:22:14.928Z,94.91
2022-10-23T07:24:49.404Z,96.46
2022-10-23T07:27:27.185Z,96.36
2022-10-23T07:29:59.009Z,96.05
2022-10-23T07:32:31.958Z,95.52
2022-10-23T07:35:04.117Z,95.25
2022-10-23T07:37:36.519Z,95.28
2022-10-23T07:40:08.503Z,94.95
2022-10-23T07:42:46.255Z,96.19
2022-10-23T07:45:16.799Z,95.78
2022-10-23T07:47:53.025Z,95.33
2022-10-23T07:50:25.630Z,95.08
2022-10-23T07:52:54.771Z,95.41
2022-10-23T07:55:27.356Z,95.70
2022-10-23T07:58:06.123Z,96.41
2022-10-23T08:00:42.455Z,95.97
2022-10-23T08:03:19.082Z,95.76
2022-10-23T08:05:49.474Z,95.93
2022-10-23T08:08:18.719Z,96.33
2022-10-23T08:10:52.413Z,96.47
2022-10-23T08:13:29.659Z,96.52
2022-10-23T08:16:03.598Z,95.72
2022-10-23T08:18:53.496Z,97.04
2022-10-23T08:21:22.882Z,96.20
2022-10-23T08:23:56.003Z,96.54
2022-10-23T08:26:27.080Z,96.74
2022-10-23T08:28:59.249Z,96.63
2022-10-23T08:31:29.721Z,96.89
2022-10-23T08:34:15.435Z,95.66
2022-10-23T08:36:47.233Z,95.44
2022-10-23T08:39:17.503Z,96.40
2022-10-23T08:42:07.086Z,96.60
2022-10-23T08:44:48.900Z,96.86
2022-10-23T08:47:30.986Z,96.95
2022-10-23T08:50:42.279Z,96.04
2022-10-23T08:53:21.503Z,97.27
2022-10-23T08:56:00.790Z,96.96
2022-10-23T08:58:40.286Z,97.38
2022-10-23T09:01:34.289Z,98.00
2022-10-23T09:04:05.193Z,96.99
2022-10-23T09:06:40.817Z,97.94
2022-10-23T09:09:45.411Z,97.54
2022-10-23T09:12:16.846Z,97.65
2022-10-23T09:15:03.645Z,98.23
2022-10-23T09:17:36.148Z,97.14
2022-10-23T09:20:19.291Z,98.28
2022-10-23T09:22:50.081Z,98.09
2022-10-23T09:25:23.358Z,97.70
2022-10-23T09:27:57.444Z,97.42
2022-10-23T09:30:36.247Z,97.93
2022-10-23T09:33:20.638Z,98.27
2022-10-23T09:35:59.297Z,97.99
2022-10-23T09:38:36.568Z,98.13
2022-10-23T09:41:19.110Z,97.66
2022-10-23T09:43:48.596Z,97.68
2022-10-23T09:46:22.531Z,98.86
2022-10-23T09:49:02.143Z,97.55
2022-10-23T09:51:34.614Z,97.92
2022-10-23T09:54:03.880Z,97.35
2022-10-23T09:56:37.470Z,97.41
2022-10-23T09:59:22.974Z,98.00
2022-10-23T10:01:55.374Z,98.16
2022-10-23T10:04:55.439Z,97.62
2022-10-23T10:07:28.636Z,97.64
2022-10-23T10:09:59.953Z,97.22
2022-10-23T10:12:59.096Z,96.42
2022-10-23T10:15:35.614Z,97.46
2022-10-23T10:18:15.896Z,96.31
2022-10-23T10:21:09.494Z,97.18
2022-10-23T10:23:48.578Z,96.30
2022-10-23T10:26:35.577Z,95.77
2022-10-23T10:29:18.370Z,96.21
2022-10-23T10:32:07.287Z,94.86
2022-10-23T10:34:48.222Z,94.73
2022-10-23T10:37:34.663Z,93.88
2022-10-23T10:40:17.579Z,93.86
2022-10-23T10:42:58.747Z,93.97
2022-10-23T10:45:34.676Z,94.46
2022-10-23T10:48:33.387Z,93.31
2022-10-23T10:51:35.853Z,94.08
2022-10-23T10:54:31.068Z,93.88
2022-10-23T10:57:05.177Z,93.40
2022-10-23T10:59:42.552Z,89.83
2022-10-23T11:02:28.985Z,90.39
2022-10-23T11:05:13.937Z,91.96
2022-10-23T11:07:52.077Z,88.60
2022-10-23T11:10:22.907Z,88.82
2022-10-23T11:12:53.588Z,88.05
2022-10-23T11:15:29.754Z,86.86
2022-10-23T11:18:03.073Z,82.99
2022-10-23T11:20:55.387Z,77.62
2022-10-23T11:24:14.271Z,73.53
2022-10-23T11:27:09.509Z,76.88
2022-10-23T11:30:02.825Z,70.91
2022-10-23T11:33:21.324Z,77.30
2022-10-23T11:36:02.217Z,77.04
2022-10-23T11:38:35.843Z,80.65
2022-10-23T11:41:08.130Z,78.54
2022-10-23T11:43:51.778Z,77.55
2022-10-23T11:46:40.331Z,79.59
2022-10-23T11:49:24.230Z,78.83
2022-10-23T11:52:02.527Z,76.26
2022-10-23T11:54:31.933Z,71.80
2022-10-23T11:57:14.328Z,68.65
2022-10-23T11:59:55.807Z,66.28
2022-10-23T12:02:32.462Z,67.08
2022-10-23T12:05:06.311Z,67.70
2022-10-23T12:07:39.740Z,59.34
2022-10-23T12:10:31.255Z,54.23
2022-10-23T12:13:03.958Z,52.85
2022-10-23T12:15:35.524Z,54.30
2022-10-23T12:18:16.749Z,50.99
2022-10-23T12:20:52.885Z,46.13
2022-10-23T12:24:04.234Z,48.13
2022-10-23T12:26:59.044Z,49.23
2022-10-23T12:29:47.348Z,48.01
2022-10-23T12:32:38.234Z,45.06
2022-10-23T12:35:28.319Z,44.17
2022-10-23T12:38:16.402Z,45.05
2022-10-23T12:40:47.343Z,46.92
2022-10-23T12:43:29.169Z,45.05
2022-10-23T12:46:04.290Z,47.81
2022-10-23T12:48:36.126Z,48.36
2022-10-23T12:51:05.443Z,48.55
2022-10-23T12:53:34.653Z,46.40
2022-10-23T12:56:15.473Z,44.85
2022-10-23T12:58:52.892Z,44.22
2022-10-23T13:01:28.664Z,46.02
2022-10-23T13:04:05.889Z,46.94
2022-10-23T13:06:35.304Z,46.99
2022-10-23T13:09:06.630Z,47.48
2022-10-23T13:12:02.032Z,46.12
2022-10-23T13:14:40.631Z,47.29
2022-10-23T13:17:13.669Z,46.05
2022-10-23T13:19:47.343Z,46.89
2022-10-23T13:22:25.314Z,46.45
2022-10-23T13:24:54.439Z,47.31
2022-10-23T13:27:32.818Z,47.70
2022-10-23T13:30:03.271Z,47.13
2022-10-23T13:32:34.128Z,47.47
2022-10-23T13:35:21.413Z,47.95
2022-10-23T13:37:51.834Z,48.15
2022-10-23T13:40:27.109Z,47.76
2022-10-23T13:42:58.970Z,48.25
2022-10-23T13:45:28.844Z,48.21
2022-10-23T13:47:58.221Z,48.40
2022-10-23T13:50:28.773Z,46.23
2022-10-23T13:52:58.481Z,47.55
2022-10-23T13:55:28.398Z,47.52
2022-10-23T13:58:00.524Z,47.83
2022-10-23T14:00:29.620Z,47.69
2022-10-23T14:03:01.222Z,46.16
2022-10-23T14:05:32.293Z,45.08
2022-10-23T14:08:05.161Z,44.55
2022-10-23T14:10:35.119Z,42.99
2022-10-23T14:13:04.333Z,44.49
2022-10-23T14:15:35.598Z,43.14
2022-10-23T14:18:08.472Z,42.19
2022-10-23T14:20:40.313Z,40.85
2022-10-23T14:23:09.453Z,41.37
2022-10-23T14:25:38.651Z,41.76
2022-10-23T14:28:07.978Z,42.25
2022-10-23T14:30:38.201Z,41.52
2022-10-23T14:33:07.449Z,41.30
2022-10-23T14:35:40.155Z,41.02
2022-10-23T14:38:11.299Z,39.73
2022-10-23T14:40:40.804Z,40.12
2022-10-23T14:43:10.080Z,39.47
2022-10-23T14:45:39.252Z,38.80
2022-10-23T14:48:11.467Z,39.56
2022-10-23T14:50:48.941Z,38.94
2022-10-23T14:53:19.939Z,39.26
2022-10-23T14:55:51.928Z,39.32
2022-10-23T14:58:23.462Z,38.59
2022-10-23T15:01:00.181Z,37.60
2022-10-23T15:03:31.068Z,37.24
2022-10-23T15:06:00.289Z,37.63
2022-10-23T15:08:30.876Z,38.21
2022-10-23T15:11:02.314Z,37.90
2022-10-23T15:13:32.135Z,38.99
2022-10-23T15:16:06.710Z,38.14
2022-10-23T15:21:11.738Z,38.37
2022-10-23T15:23:46.528Z,38.65
2022-10-23T15:26:25.628Z,37.88
2022-10-23T15:28:56.596Z,39.36
2022-10-23T15:31:45.912Z,40.26
2022-10-23T15:34:18.919Z,42.07
2022-10-23T15:36:49.033Z,42.97
2022-10-23T15:39:22.210Z,43.00
2022-10-23T15:41:53.808Z,44.24
2022-10-23T15:44:24.720Z,45.07
2022-10-23T15:46:53.890Z,45.91
2022-10-23T15:49:26.550Z,47.14
2022-10-23T15:51:55.727Z,47.85
2022-10-23T15:54:29.392Z,48.78
2022-10-23T15:57:01.503Z,49.51
2022-10-23T15:59:32.333Z,50.46
2022-10-23T16:02:01.858Z,51.45
2022-10-23T16:04:31.406Z,51.76
2022-10-23T16:07:02.538Z,53.12
2022-10-23T16:09:33.078Z,53.97
2022-10-23T16:12:02.253Z,53.96
2022-10-23T16:14:31.354Z,55.18
2022-10-23T16:17:00.457Z,56.33
2022-10-23T16:19:29.569Z,57.47
2022-10-23T16:21:58.728Z,58.17
2022-10-23T16:24:27.848Z,58.43
2022-10-23T16:26:58.524Z,59.27
2022-10-23T16:29:29.688Z,59.85
2022-10-23T16:31:59.971Z,60.16
2022-10-23T16:34:29.175Z,60.51
2022-10-23T16:36:58.580Z,61.75
2022-10-23T16:39:50.620Z,62.14
2022-10-23T16:42:41.932Z,62.27
2022-10-23T16:45:37.924Z,62.30
2022-10-23T16:48:07.579Z,62.74
2022-10-23T16:53:13.191Z,62.69
2022-10-23T16:55:42.596Z,63.05
2022-10-23T16:58:13.217Z,63.25
2022-10-23T17:00:42.598Z,63.31
2022-10-23T17:03:11.819Z,63.58
2022-10-23T17:05:40.912Z,63.19
2022-10-23T17:08:10.028Z,63.65
2022-10-23T17:10:42.029Z,64.00
2022-10-23T17:13:12.771Z,64.75
2022-10-23T17:15:47.133Z,65.60
2022-10-23T17:18:16.396Z,65.49
2022-10-23T17:20:45.565Z,66.50
2022-10-23T17:23:14.916Z,66.49
2022-10-23T17:25:44.143Z,66.41
2022-10-23T17:28:17.092Z,66.54
2022-10-23T17:30:46.381Z,66.49
2022-10-23T17:33:15.658Z,66.63
2022-10-23T17:35:46.416Z,66.63
2022-10-23T17:38:19.236Z,67.21
2022-10-23T17:40:49.059Z,67.54
2022-10-23T17:43:19.690Z,67.57
2022-10-23T17:45:48.857Z,68.42
2022-10-23T17:48:18.101Z,69.05
2022-10-23T17:50:47.636Z,69.53
2022-10-23T17:53:16.816Z,69.70
2022-10-23T17:55:45.995Z,70.01
2022-10-23T17:58:17.533Z,70.85
2022-10-23T18:00:48.052Z,70.89
2022-10-23T18:03:20.839Z,70.96
2022-10-23T18:05:50.035Z,71.99
2022-10-23T18:08:19.472Z,71.91
2022-10-23T18:10:51.381Z,72.09
2022-10-23T18:13:20.620Z,72.06
2022-10-23T18:15:51.746Z,72.08
2022-10-23T18:18:22.690Z,72.15
2022-10-23T18:20:51.795Z,72.31
2022-10-23T18:23:20.971Z,72.46
2022-10-23T18:25:50.107Z,72.57
2022-10-23T18:28:25.324Z,72.85
2022-10-23T18:30:57.146Z,73.46
2022-10-23T18:33:26.791Z,72.61
2022-10-23T18:35:57.035Z,72.39
2022-10-23T18:38:26.328Z,72.34
2022-10-23T18:40:57.430Z,72.42
2022-10-23T18:43:42.465Z,73.00
2022-10-23T18:46:14.997Z,73.09
2022-10-23T18:48:45.325Z,72.81
2022-10-23T18:51:16.743Z,72.72
2022-10-23T18:53:47.820Z,72.89
2022-10-23T18:56:22.263Z,72.48
2022-10-23T18:58:52.440Z,72.48
2022-10-23T19:01:24.600Z,72.07
2022-10-23T19:06:29.806Z,71.30
2022-10-23T19:08:59.030Z,71.47
2022-10-23T19:11:30.063Z,71.21
2022-10-23T19:14:00.459Z,71.33
2022-10-23T19:16:36.546Z,71.04
2022-10-23T19:19:12.093Z,71.35
2022-10-23T19:21:43.246Z,71.26
2022-10-23T19:24:21.182Z,71.28
2022-10-23T19:26:51.204Z,71.25
2022-10-23T19:29:24.393Z,71.20
2022-10-23T19:31:55.389Z,71.10
2022-10-23T19:34:25.703Z,71.23
2022-10-23T19:36:55.999Z,71.15
2022-10-23T19:39:26.187Z,70.85
2022-10-23T19:41:55.804Z,71.59
2022-10-23T19:44:25.194Z,71.35
2022-10-23T19:46:55.882Z,71.08
2022-10-23T19:49:25.106Z,71.28
2022-10-23T19:51:57.897Z,71.03
2022-10-23T19:54:28.038Z,71.18
2022-10-23T19:56:57.525Z,71.16
2022-10-23T19:59:32.265Z,71.04
2022-10-23T20:02:03.518Z,70.54
2022-10-23T20:04:33.053Z,70.78
2022-10-23T20:07:02.615Z,70.68
2022-10-23T20:09:33.205Z,70.52
2022-10-23T20:12:03.876Z,70.63
2022-10-23T20:14:33.428Z,70.51
2022-10-23T20:17:05.219Z,70.33
2022-10-23T20:19:35.070Z,70.56
2022-10-23T20:22:04.742Z,70.59
2022-10-23T20:24:34.152Z,70.42
2022-10-23T20:27:03.378Z,70.21
2022-10-23T20:29:32.760Z,70.25
2022-10-23T20:32:03.561Z,70.04
2022-10-23T20:34:34.879Z,70.14
2022-10-23T20:37:04.338Z,70.11
2022-10-23T20:39:35.741Z,70.04
2022-10-23T20:42:08.699Z,70.01
2022-10-23T20:44:38.338Z,69.80
2022-10-23T20:47:09.143Z,70.15
2022-10-23T20:49:39.327Z,70.23
2022-10-23T20:52:08.535Z,69.98
2022-10-23T20:54:38.334Z,70.27
2022-10-23T20:57:10.488Z,70.21
2022-10-23T20:59:43.078Z,70.49
2022-10-23T21:02:13.628Z,71.15
2022-10-23T21:04:43.108Z,70.86
2022-10-23T21:07:12.402Z,70.88
2022-10-23T21:09:41.720Z,71.15
2022-10-23T21:12:11.237Z,71.39
2022-10-23T21:14:40.497Z,71.47
2022-10-23T21:17:12.152Z,71.79
2022-10-23T21:19:42.809Z,71.80
2022-10-23T21:22:13.925Z,71.83
2022-10-23T21:24:43.112Z,71.95
2022-10-23T21:27:15.112Z,71.95
2022-10-23T21:29:44.651Z,72.37
2022-10-23T21:32:13.771Z,72.22
2022-10-23T21:34:44.644Z,72.55
2022-10-23T21:37:16.843Z,72.52
2022-10-23T21:39:47.271Z,72.35
2022-10-23T21:42:16.645Z,72.64
2022-10-23T21:44:46.136Z,72.92
2022-10-23T21:47:15.400Z,72.78
2022-10-23T21:49:46.064Z,72.78
2022-10-23T21:52:17.636Z,72.93
2022-10-23T21:54:53.728Z,73.32
2022-10-23T21:57:23.095Z,73.17
2022-10-23T21:59:53.398Z,73.32
2022-10-23T22:02:28.007Z,73.88
2022-10-23T22:04:58.549Z,73.73
2022-10-23T22:09:57.882Z,73.77
2022-10-23T22:12:29.399Z,74.22
2022-10-23T22:14:58.564Z,74.40
2022-10-23T22:17:28.189Z,74.18
2022-10-23T22:19:58.714Z,74.55
2022-10-23T22:22:30.232Z,74.52
2022-10-23T22:24:59.978Z,74.80
2022-10-23T22:27:29.400Z,74.91
2022-10-23T22:30:03.850Z,75.04
2022-10-23T22:32:33.055Z,75.08
2022-10-23T22:35:03.556Z,75.41
2022-10-23T22:37:32.755Z,75.43
2022-10-23T22:40:02.505Z,75.63
2022-10-23T22:42:31.838Z,75.57
2022-10-23T22:45:00.943Z,75.82
2022-10-23T22:47:31.361Z,75.47
2022-10-23T22:50:02.056Z,75.82
2022-10-23T22:52:32.664Z,75.77
2022-10-23T22:55:02.055Z,75.98
2022-10-23T22:57:31.857Z,76.36
2022-10-23T23:00:00.974Z,76.70
2022-10-23T23:02:30.632Z,76.43
2022-10-23T23:04:59.970Z,76.40
2022-10-23T23:07:33.964Z,76.29
2022-10-23T23:10:03.065Z,76.69
2022-10-23T23:12:32.477Z,76.22
2022-10-23T23:15:01.581Z,76.60
2022-10-23T23:17:30.813Z,76.54
2022-10-23T23:20:00.147Z,76.52
2022-10-23T23:22:29.259Z,76.52
2022-10-23T23:25:00.020Z,76.77
2022-10-23T23:27:29.383Z,76.58
2022-10-23T23:29:58.627Z,76.82
2022-10-23T23:32:27.807Z,76.76
2022-10-23T23:34:56.898Z,76.61
2022-10-23T23:37:26.040Z,77.49
2022-10-23T23:39:55.673Z,77.02
2022-10-23T23:42:26.162Z,77.15
2022-10-23T23:45:02.876Z,76.74
2022-10-23T23:47:40.300Z,76.88
2022-10-23T23:50:12.795Z,77.88
2022-10-23T23:52:41.980Z,77.79
2022-10-23T23:55:11.411Z,77.56
2022-10-23T23:57:42.164Z,77.50
